DAUG/GHA METAR and TAF weather

Enter ICAO airport designator
Station Type Date Time Source
DAUG METAR 2022/05/24 11:00 UTC NOAA

DAUG 241100Z 22010KT CAVOK 36/00 Q1012


Station Type Date Time Source
DAUG Decoded METAR 2022/05/24 11:00 UTC NOAA

Ghardaia, Algeria (DAUG) 32-23N 003-49E 450M
May 24, 2022 - 07:00 AM EDT / 2022.05.24 1100 UTC
Wind: from the SW (220 degrees) at 12 MPH (10 KT):0
Visibility: greater than 7 mile(s):0
Temperature: 96 F (36 C)
Dew Point: 32 F (0 C)
Relative Humidity: 10%
Pressure (altimeter): 29.88 in. Hg (1012 hPa)
ob: DAUG 241100Z 22010KT CAVOK 36/00 Q1012
cycle: 11

Station Type Date Time Source
DAUG TAF 2022/05/24 12:00 UTC NOAA

TAF DAUG 241100Z 2412/2512 24012KT CAVOK PROB40
TEMPO 2413/2418 24015G30KT 3000 DRSA FEW040CB PROB30
TEMPO 2418/2506 4000 HZ
BECMG 2420/2422 VRB02KT
BECMG 2506/2509 34012KT

Example: see airport list